Weather observations for the past three days for
Ontario Municipal Airport
Metric (Imperial)
Date Time (mdt) Wind (kph) Vis. (km) Weather Sky Cond. Temperature (ºC) Relative Humidity Wind Chill (°C) Heat Index (°C) Pressure Precipitation (cm)
Air Dwpt 6 hour altimeter (cm) sea level (mb) 1 hr 3 hr 6 hr
Max. Min.
08 03:53 SW 9 16.09 Fair CLR 11.7 2.8 55% 76.12 1013.9
08 02:53 W 17 G 35 16.09 Fair CLR 16.7 0.6 34% 76.1 1013.2
08 01:53 S 7 16.09 Fair CLR 15.6 1.7 39% 76.07 0.0
08 00:53 NW 22 16.09 Fair CLR 17.2 1.7 35% 76.05 1012.6
07 23:53 NW 15 16.09 Fair CLR 17.8 2.2 26.1 17.2 35% 76.02 1012.6
07 22:53 Calm 16.09 Fair CLR 17.8 3.9 40% 76.02 1012.6
07 21:53 NW 7 16.09 Fair CLR 17.2 5.6 47% 76 1012.1
07 20:53 W 6 16.09 Fair CLR 21.7 5.6 35% 75.95 1011.3
07 19:53 N 7 16.09 Fair CLR 24.4 3.3 25% 25 75.9 1010.8
07 18:53 NE 11 16.09 Fair CLR 26.1 1.7 20% 26 75.9 1010.9
07 17:53 Vrbl 11 16.09 Fair CLR 26.1 2.2 21% 26 75.92 1011.1
07 16:53 N 15 16.09 Fair CLR 26.1 2.8 22% 26 75.95 1011.4
07 15:53 NE 7 16.09 Fair CLR 26.1 3.3 23% 26 76 1012.2
07 14:53 Vrbl 7 16.09 Fair CLR 25.6 3.3 24% 25 76.07 1013.1
07 13:53 Calm 0.00 Fair CLR 0 0 0% 76.1 0.0
07 12:53 NW 13 16.09 Fair CLR 23.9 2.8 25% 25 76.15 1014.3
07 11:53 NE 9 16.09 Fair CLR 22.2 2.2 22.2 12.2 27% 76.17 1014.7
07 10:53 Vrbl 7 16.09 Fair CLR 21.1 3.9 32% 76.2 1015.0
07 09:53 W 9 16.09 Fair CLR 20 3.3 33% 76.23 1015.2
07 08:53 SW 13 16.09 Fair CLR 17.8 5 43% 76.23 1015.4
07 07:53 S 7 16.09 Fair CLR 15.6 6.7 56% 76.2 1014.9
07 06:53 Vrbl 7 16.09 Fair CLR 13.3 5 57% 76.17 1014.6
07 05:53 NW 13 16.09 Fair CLR 12.8 3.9 18.3 12.8 55% 76.15 1014.5
07 04:53 NW 9 16.09 Fair CLR 14.4 3.3 48% 76.15 1014.3
07 03:53 NW 13 16.09 Fair CLR 14.4 3.9 50% 76.15 1014.3
07 02:53 SW 11 16.09 Fair CLR 14.4 7.2 62% 76.15 1014.2
07 01:53 Calm 16.09 Fair CLR 15 7.8 62% 76.12 1014.0
07 00:53 Calm 16.09 Fair CLR 15.6 7.2 58% 76.12 1014.0
06 23:53 W 7 16.09 Fair CLR 16.7 7.2 26.1 16.7 54% 76.1 1013.9
06 22:53 N 11 16.09 Fair CLR 18.9 6.7 45% 76.1 1013.7
06 21:53 N 9 16.09 Fair CLR 19.4 7.2 45% 76.07 1013.3
06 20:53 N 9 16.09 Fair CLR 21.7 6.7 38% 76 1012.4
06 19:53 E 7 16.09 Fair CLR 23.9 6.1 32% 25 76 1012.4
06 18:53 NE 9 16.09 Fair CLR 25 5 28% 25 76.02 1012.9
06 16:53 E 15 16.09 Fair CLR 25.6 4.4 26% 25 76.12 1014.0
06 15:53 SE 9 16.09 Fair CLR 24.4 3.9 26% 25 76.23 1015.5
06 14:53 Vrbl 6 16.09 Fair CLR 23.3 2.2 25% 76.33 1016.8
06 13:53 Vrbl 7 16.09 Fair CLR 21.1 1.1 27% 76.38 1017.6
06 12:53 Vrbl 9 16.09 Fair CLR 20 0.6 27% 76.43 1018.5
06 11:53 SE 13 16.09 Fair CLR 18.9 0 19.4 10.6 28% 76.48 1019.3
06 10:53 S 17 G 31 16.09 Fair CLR 17.8 -2.2 26% 76.5 1019.4
06 09:53 SE 17 G 37 16.09 Fair CLR 16.7 -2.2 28% 76.5 1019.4
06 08:53 SE 9 16.09 Fair CLR 14.4 -2.2 32% 76.5 1019.3
06 07:53 Vrbl 6 16.09 Fair CLR 12.2 -1.7 38% 76.45 1018.6
06 06:53 E 11 16.09 Fair CLR 10.6 -1.7 43% 76.4 1018.0
06 05:53 SE 9 16.09 Fair CLR 10.6 -0.6 16.1 10 46% 76.35 1017.0
06 04:53 SE 9 16.09 Fair CLR 11.1 1.7 53% 76.28 1016.0
06 03:53 W 9 16.09 Fair CLR 11.1 5 66% 76.17 1014.8
06 02:53 W 6 16.09 Fair CLR 12.2 5 62% 76.12 1013.9
06 01:53 Calm 16.09 Fair CLR 12.8 5 59% 76.05 1013.1
06 00:53 Calm 16.09 Fair CLR 14.4 5 53% 76.02 1012.5
05 23:53 NE 6 16.09 Fair CLR 14.4 4.4 27.8 14.4 51% 75.92 1011.4
05 22:53 N 11 16.09 Fair CLR 17.8 3.9 40% 75.87 1010.5
05 21:53 N 15 16.09 Fair CLR 19.4 5 39% 75.79 1009.5
05 20:53 NW 24 16.09 Fair CLR 22.2 5 33% 75.72 1008.1
05 19:53 NW 26 G 37 16.09 Fair CLR 25 5 28% 25 75.64 1007.3
05 18:53 NW 30 G 43 16.09 Overcast OVC110 25 3.9 26% 25 75.62 1007.1
05 17:53 N 15 16.09 Fair CLR 27.8 3.3 28.3 22.8 21% 27 75.62 1006.7
05 16:53 N 13 16.09 Partly Cloudy SCT100 26.7 1.1 19% 26 75.64 1006.9
05 15:53 NE 9 16.09 Partly Cloudy SCT110 26.7 2.2 20% 26 75.67 1007.4
05 14:53 Vrbl 6 16.09 A Few Clouds FEW100 26.1 1.7 20% 26 75.72 1007.9
05 13:53 Calm 16.09 Fair CLR 25.6 4.4 26% 25 75.74 1008.6
05 12:53 Vrbl 7 16.09 Fair CLR 23.3 4.4 29% 75.77 1009.2
05 11:53 SE 9 16.09 Fair CLR 22.8 5.6 23.3 13.3 33% 75.79 1009.3
05 10:53 SE 9 16.09 Fair CLR 21.7 6.7 38% 75.79 1009.2
05 09:53 Vrbl 9 16.09 Fair CLR 20.6 6.7 41% 75.77 1008.8
05 08:53 Calm 16.09 Fair CLR 18.9 6.1 43% 75.74 1008.6
05 07:53 N 7 16.09 Fair CLR 16.1 5.6 50% 75.69 1007.7
05 06:53 N 13 16.09 Fair CLR 14.4 4.4 51% 75.62 1006.8
05 05:53 N 9 16.09 Fair CLR 14.4 3.9 18.9 13.3 50% 75.57 1005.9
05 04:53 NW 13 16.09 Fair CLR 16.1 3.9 44% 75.51 1005.4
Date Time (mdt) Wind (kph) Vis. (km) Weather Sky Cond. Air Dwpt Max. Min. Relative Humidity Wind Chill (°C) Heat Index (°C) altimeter (cm) sea level (mb) 1 hr 3 hr 6 hr
6 hour
Temperature (ºC) Pressure Precipitation (cm)